createdAt,value
2023-09-30T00:00:15.410Z,18.00
2023-09-30T00:05:11.238Z,17.90
2023-09-30T00:10:07.229Z,17.82
2023-09-30T00:15:00.549Z,17.91
2023-09-30T00:19:53.877Z,17.90
2023-09-30T00:24:47.201Z,17.85
2023-09-30T00:29:42.574Z,17.88
2023-09-30T00:34:36.576Z,17.89
2023-09-30T00:39:31.476Z,18.00
2023-09-30T00:44:24.932Z,18.00
2023-09-30T00:49:20.223Z,17.98
2023-09-30T00:54:14.298Z,17.96
2023-09-30T00:59:07.952Z,18.01
2023-09-30T01:04:01.944Z,17.93
2023-09-30T01:08:57.334Z,17.98
2023-09-30T01:13:50.699Z,18.08
2023-09-30T01:18:44.834Z,17.95
2023-09-30T01:23:39.890Z,17.93
2023-09-30T01:28:33.572Z,17.94
2023-09-30T01:33:26.976Z,17.73
2023-09-30T01:38:21.083Z,17.69
2023-09-30T01:43:16.397Z,17.66
2023-09-30T01:48:12.065Z,17.76
2023-09-30T01:53:06.149Z,17.80
2023-09-30T01:57:59.461Z,17.85
2023-09-30T02:02:54.363Z,17.86
2023-09-30T02:07:47.754Z,17.90
2023-09-30T02:12:41.156Z,17.72
2023-09-30T02:17:34.637Z,17.63
2023-09-30T02:22:33.192Z,17.54
2023-09-30T02:27:26.591Z,17.63
2023-09-30T02:32:19.924Z,17.45
2023-09-30T02:37:13.266Z,17.55
2023-09-30T02:42:08.045Z,17.47
2023-09-30T02:47:01.374Z,17.28
2023-09-30T02:51:54.729Z,17.33
2023-09-30T02:56:48.283Z,17.42
2023-09-30T03:01:43.345Z,17.38
2023-09-30T03:06:39.720Z,17.34
2023-09-30T03:11:33.349Z,17.37
2023-09-30T03:16:27.212Z,17.39
2023-09-30T03:21:21.975Z,17.44
2023-09-30T03:26:15.435Z,17.52
2023-09-30T03:31:09.468Z,17.38
2023-09-30T03:36:04.784Z,17.23
2023-09-30T03:40:59.584Z,17.24
2023-09-30T03:45:54.762Z,17.24
2023-09-30T03:50:48.087Z,17.32
2023-09-30T03:55:41.884Z,17.33
2023-09-30T04:00:37.187Z,17.45
2023-09-30T04:05:33.202Z,17.26
2023-09-30T04:10:26.679Z,17.27
2023-09-30T04:15:20.806Z,17.35
2023-09-30T04:20:24.047Z,17.32
2023-09-30T04:25:18.247Z,17.31
2023-09-30T04:30:12.804Z,17.36
2023-09-30T04:35:07.260Z,17.35
2023-09-30T04:40:02.023Z,17.32
2023-09-30T04:45:02.588Z,17.20
2023-09-30T04:49:59.502Z,16.99
2023-09-30T04:54:52.928Z,17.09
2023-09-30T04:59:52.335Z,17.24
2023-09-30T05:04:46.033Z,17.16
2023-09-30T05:09:39.436Z,17.06
2023-09-30T05:14:34.275Z,17.12
2023-09-30T05:19:29.400Z,17.08
2023-09-30T05:24:22.766Z,17.15
2023-09-30T05:29:19.061Z,17.18
2023-09-30T05:34:14.939Z,17.20
2023-09-30T05:39:13.098Z,17.25
2023-09-30T05:44:08.893Z,17.12
2023-09-30T05:49:11.949Z,16.95
2023-09-30T05:54:06.252Z,17.05
2023-09-30T05:59:03.369Z,17.14
2023-09-30T06:03:57.181Z,17.24
2023-09-30T06:08:51.144Z,17.34
2023-09-30T06:13:48.333Z,17.18
2023-09-30T06:18:43.149Z,17.23
2023-09-30T06:23:36.847Z,17.21
2023-09-30T06:28:32.660Z,17.20
2023-09-30T06:33:26.386Z,17.27
2023-09-30T06:38:21.860Z,17.41
2023-09-30T06:43:16.748Z,17.43
2023-09-30T06:48:13.715Z,17.42
2023-09-30T06:53:07.492Z,17.49
2023-09-30T06:58:02.636Z,17.53
2023-09-30T07:02:56.102Z,17.54
2023-09-30T07:07:49.556Z,17.64
2023-09-30T07:12:43.199Z,17.60
2023-09-30T07:17:38.652Z,17.74
2023-09-30T07:27:28.968Z,17.91
2023-09-30T07:32:24.446Z,17.93
2023-09-30T07:37:20.405Z,17.95
2023-09-30T07:42:14.241Z,18.00
2023-09-30T07:47:08.111Z,18.02
2023-09-30T07:52:01.555Z,18.05
2023-09-30T07:56:57.016Z,18.03
2023-09-30T08:01:51.117Z,18.06
2023-09-30T08:06:44.575Z,18.09
2023-09-30T08:11:38.260Z,18.19
2023-09-30T08:16:33.083Z,18.35
2023-09-30T08:21:26.461Z,18.59
2023-09-30T08:26:19.795Z,18.97
2023-09-30T08:31:13.131Z,18.96
2023-09-30T08:36:09.722Z,18.92
2023-09-30T08:41:04.362Z,18.95
2023-09-30T08:45:58.969Z,19.01
2023-09-30T08:50:55.551Z,19.06
2023-09-30T08:55:55.091Z,19.41
2023-09-30T09:00:52.415Z,19.72
2023-09-30T09:05:45.876Z,20.06
2023-09-30T09:10:57.387Z,20.17
2023-09-30T09:15:50.862Z,20.18
2023-09-30T09:20:44.424Z,20.05
2023-09-30T09:25:41.326Z,20.09
2023-09-30T09:30:40.071Z,20.00
2023-09-30T09:35:36.296Z,19.99
2023-09-30T09:40:32.001Z,19.99
2023-09-30T09:45:28.267Z,19.94
2023-09-30T09:50:24.914Z,20.11
2023-09-30T09:55:19.827Z,20.26
2023-09-30T10:00:17.479Z,20.41
2023-09-30T10:05:13.074Z,20.50
2023-09-30T10:10:15.210Z,20.68
2023-09-30T10:15:42.660Z,20.78
2023-09-30T10:20:37.809Z,20.91
2023-09-30T10:25:40.362Z,21.05
2023-09-30T10:30:33.833Z,21.03
2023-09-30T10:35:47.512Z,21.15
2023-09-30T10:40:42.340Z,21.18
2023-09-30T10:45:48.462Z,21.05
2023-09-30T10:50:56.449Z,20.96
2023-09-30T10:55:58.462Z,20.86
2023-09-30T11:00:56.440Z,20.78
2023-09-30T11:06:11.099Z,20.83
2023-09-30T11:11:06.273Z,20.75
2023-09-30T11:16:03.704Z,20.70
2023-09-30T11:21:11.694Z,20.76
2023-09-30T11:26:07.453Z,20.79
2023-09-30T11:31:03.471Z,20.91
2023-09-30T11:36:03.897Z,20.88
2023-09-30T11:41:07.591Z,20.93
2023-09-30T11:46:09.917Z,20.88
2023-09-30T11:51:04.653Z,20.90
2023-09-30T11:55:59.738Z,21.00
2023-09-30T12:00:58.668Z,21.04
2023-09-30T12:05:52.217Z,21.08
2023-09-30T12:10:45.500Z,21.17
2023-09-30T12:15:38.911Z,21.39
2023-09-30T12:20:34.301Z,21.43
2023-09-30T12:25:27.656Z,21.41
2023-09-30T12:30:21.318Z,21.29
2023-09-30T12:35:14.659Z,21.34
2023-09-30T12:40:12.621Z,21.36
2023-09-30T12:45:07.208Z,21.30
2023-09-30T12:50:00.524Z,21.17
2023-09-30T12:54:54.255Z,21.19
2023-09-30T12:59:50.507Z,21.17
2023-09-30T13:04:45.806Z,21.22
2023-09-30T13:09:39.325Z,21.19
2023-09-30T13:14:32.834Z,21.34
2023-09-30T13:19:27.657Z,21.36
2023-09-30T13:24:21.290Z,21.48
2023-09-30T13:29:17.315Z,21.40
2023-09-30T13:34:11.072Z,21.36
2023-09-30T13:39:06.881Z,21.36
2023-09-30T13:44:00.305Z,21.40
2023-09-30T13:48:54.178Z,21.44
2023-09-30T13:53:47.659Z,21.39
2023-09-30T13:58:43.484Z,21.23
2023-09-30T14:03:36.817Z,21.13
2023-09-30T14:08:31.693Z,21.09
2023-09-30T14:13:25.110Z,20.96
2023-09-30T14:18:19.801Z,21.02
2023-09-30T14:23:13.112Z,21.04
2023-09-30T14:28:07.113Z,20.98
2023-09-30T14:33:00.579Z,21.03
2023-09-30T14:37:56.118Z,20.99
2023-09-30T14:42:50.152Z,21.01
2023-09-30T14:47:43.667Z,21.02
2023-09-30T14:52:37.008Z,21.05
2023-09-30T14:57:31.812Z,21.05
2023-09-30T15:02:26.252Z,21.14
2023-09-30T15:07:19.946Z,21.21
2023-09-30T15:12:13.235Z,21.19
2023-09-30T15:17:07.970Z,21.06
2023-09-30T15:22:01.340Z,20.98
2023-09-30T15:26:55.710Z,21.01
2023-09-30T15:31:49.192Z,21.02
2023-09-30T15:36:44.035Z,21.00
2023-09-30T15:41:37.376Z,21.00
2023-09-30T15:46:31.187Z,20.91
2023-09-30T15:51:24.596Z,20.88
2023-09-30T15:56:19.256Z,20.79
2023-09-30T16:01:14.960Z,20.67
2023-09-30T16:06:08.359Z,20.59
2023-09-30T16:11:01.793Z,20.54
2023-09-30T16:15:56.799Z,20.46
2023-09-30T16:20:51.550Z,20.36
2023-09-30T16:25:44.867Z,20.24
2023-09-30T16:30:38.369Z,20.09
2023-09-30T16:35:33.240Z,20.00
2023-09-30T16:40:26.724Z,19.81
2023-09-30T16:45:20.064Z,19.67
2023-09-30T16:50:13.611Z,19.55
2023-09-30T16:55:13.651Z,19.46
2023-09-30T17:00:09.177Z,19.30
2023-09-30T17:05:05.075Z,19.01
2023-09-30T17:09:58.575Z,18.94
2023-09-30T17:14:55.728Z,18.92
2023-09-30T17:19:52.843Z,18.81
2023-09-30T17:24:47.180Z,18.78
2023-09-30T17:29:40.689Z,18.69
2023-09-30T17:34:38.309Z,18.56
2023-09-30T17:39:32.253Z,18.50
2023-09-30T17:44:26.000Z,18.57
2023-09-30T17:49:19.564Z,18.49
2023-09-30T17:54:14.779Z,18.38
2023-09-30T17:59:12.869Z,18.36
2023-09-30T18:04:20.665Z,18.27
2023-09-30T18:09:15.412Z,17.93
2023-09-30T18:14:12.133Z,17.84
2023-09-30T18:19:06.370Z,17.92
2023-09-30T18:23:59.986Z,18.06
2023-09-30T18:28:56.251Z,18.15
2023-09-30T18:33:49.800Z,18.10
2023-09-30T18:38:43.403Z,18.10
2023-09-30T18:43:36.821Z,18.16
2023-09-30T18:48:31.530Z,18.15
2023-09-30T18:53:24.858Z,18.13
2023-09-30T18:58:19.240Z,18.04
2023-09-30T19:03:13.229Z,17.68
2023-09-30T19:08:10.053Z,17.70
2023-09-30T19:13:03.702Z,17.74
2023-09-30T19:17:57.873Z,17.62
2023-09-30T19:22:52.236Z,17.35
2023-09-30T19:27:47.314Z,17.39
2023-09-30T19:32:40.823Z,17.41
2023-09-30T19:37:34.841Z,17.35
2023-09-30T19:42:28.594Z,17.50
2023-09-30T19:47:24.804Z,17.55
2023-09-30T19:52:18.240Z,17.45
2023-09-30T19:57:11.863Z,17.14
2023-09-30T20:02:06.430Z,17.10
2023-09-30T20:07:01.875Z,17.11
2023-09-30T20:11:57.686Z,16.86
2023-09-30T20:16:51.215Z,16.87
2023-09-30T20:21:44.701Z,16.76
2023-09-30T20:26:41.455Z,16.64
2023-09-30T20:31:36.125Z,16.65
2023-09-30T20:36:29.528Z,16.72
2023-09-30T20:41:22.906Z,16.80
2023-09-30T20:46:18.088Z,16.63
2023-09-30T20:51:12.214Z,16.63
2023-09-30T20:56:11.545Z,16.66
2023-09-30T21:01:08.197Z,16.62
2023-09-30T21:06:07.644Z,16.57
2023-09-30T21:11:01.144Z,16.46
2023-09-30T21:15:56.269Z,16.37
2023-09-30T21:20:49.728Z,16.41
2023-09-30T21:25:47.224Z,16.22
2023-09-30T21:30:40.933Z,16.20
2023-09-30T21:35:35.486Z,16.30
2023-09-30T21:40:28.994Z,16.31
2023-09-30T21:45:23.966Z,16.38
2023-09-30T21:50:17.454Z,16.33
2023-09-30T21:55:12.597Z,16.16
2023-09-30T22:00:12.440Z,16.18
2023-09-30T22:05:11.875Z,16.16
2023-09-30T22:10:06.800Z,16.12
2023-09-30T22:15:02.419Z,16.09
2023-09-30T22:19:55.722Z,16.00
2023-09-30T22:24:50.775Z,15.88
2023-09-30T22:29:44.770Z,15.82
2023-09-30T22:34:41.037Z,15.88
2023-09-30T22:39:34.394Z,15.76
2023-09-30T22:44:29.128Z,15.88
2023-09-30T22:49:22.595Z,15.88
2023-09-30T22:54:16.906Z,15.91
2023-09-30T22:59:11.562Z,15.93
2023-09-30T23:04:07.547Z,16.01
2023-09-30T23:09:01.262Z,15.88
2023-09-30T23:13:54.733Z,15.86
2023-09-30T23:18:48.585Z,15.84
2023-09-30T23:23:43.393Z,15.82
2023-09-30T23:28:37.599Z,15.75
2023-09-30T23:33:31.963Z,15.89
2023-09-30T23:38:25.296Z,15.76
2023-09-30T23:43:20.303Z,15.69
2023-09-30T23:48:13.723Z,15.74
2023-09-30T23:53:07.806Z,15.70
2023-09-30T23:58:01.309Z,15.66
